createdAt,value
2017-10-19T00:00:02.328Z,0.00
2017-10-19T00:01:02.397Z,0.00
2017-10-19T00:02:02.329Z,0.00
2017-10-19T00:03:02.397Z,0.00
2017-10-19T00:04:02.350Z,0.00
2017-10-19T00:05:02.405Z,0.00
2017-10-19T00:06:02.400Z,0.00
2017-10-19T00:07:02.331Z,0.00
2017-10-19T00:08:02.329Z,0.00
2017-10-19T00:09:02.404Z,0.00
2017-10-19T00:10:02.332Z,0.00
2017-10-19T00:11:02.341Z,0.00
2017-10-19T00:12:02.405Z,0.00
2017-10-19T00:13:02.336Z,0.00
2017-10-19T00:14:02.404Z,0.00
2017-10-19T00:15:02.337Z,0.00
2017-10-19T00:16:02.410Z,0.00
2017-10-19T00:17:02.344Z,0.00
2017-10-19T00:18:02.411Z,0.00
2017-10-19T00:19:02.343Z,0.00
2017-10-19T00:20:02.410Z,0.00
2017-10-19T00:21:02.340Z,0.00
2017-10-19T00:22:02.409Z,0.00
2017-10-19T00:23:02.344Z,0.00
2017-10-19T00:24:02.346Z,0.00
2017-10-19T00:25:02.412Z,0.00
2017-10-19T00:26:02.345Z,0.00
2017-10-19T00:27:02.430Z,0.00
2017-10-19T00:28:02.350Z,0.00
2017-10-19T00:29:02.277Z,0.00
2017-10-19T00:30:02.345Z,0.00
2017-10-19T00:31:02.368Z,0.00
2017-10-19T00:32:02.304Z,0.00
2017-10-19T00:33:02.275Z,0.00
2017-10-19T00:34:02.397Z,0.00
2017-10-19T00:35:02.374Z,0.00
2017-10-19T00:36:02.311Z,0.00
2017-10-19T00:37:02.284Z,0.00
2017-10-19T00:38:02.400Z,0.00
2017-10-19T00:39:02.420Z,0.00
2017-10-19T00:40:02.351Z,0.00
2017-10-19T00:41:02.419Z,0.00
2017-10-19T00:42:02.353Z,0.00
2017-10-19T00:43:02.352Z,0.00
2017-10-19T00:44:02.423Z,0.00
2017-10-19T00:45:02.424Z,0.00
2017-10-19T00:46:02.424Z,0.00
2017-10-19T00:47:02.356Z,0.00
2017-10-19T00:48:02.424Z,0.00
2017-10-19T00:49:02.358Z,0.00
2017-10-19T00:50:02.433Z,0.00
2017-10-19T00:51:02.357Z,0.00
2017-10-19T00:52:02.427Z,0.00
2017-10-19T00:53:02.429Z,0.00
2017-10-19T00:54:02.362Z,0.00
2017-10-19T00:55:02.430Z,0.00
2017-10-19T00:56:02.363Z,0.00
2017-10-19T00:57:02.429Z,0.00
2017-10-19T00:58:02.444Z,0.00
2017-10-19T00:59:02.326Z,0.00
2017-10-19T01:00:02.282Z,0.00
2017-10-19T01:01:02.377Z,0.00
2017-10-19T01:02:02.283Z,0.00
2017-10-19T01:03:02.289Z,0.00
2017-10-19T01:04:02.332Z,0.00
2017-10-19T01:05:02.298Z,0.00
2017-10-19T01:06:02.333Z,0.00
2017-10-19T01:07:02.333Z,0.00
2017-10-19T01:08:02.289Z,0.00
2017-10-19T01:09:02.371Z,0.00
2017-10-19T01:10:02.436Z,0.00
2017-10-19T01:11:02.329Z,0.00
2017-10-19T01:12:02.377Z,0.00
2017-10-19T01:13:02.425Z,0.00
2017-10-19T01:14:02.396Z,0.00
2017-10-19T01:15:02.350Z,0.00
2017-10-19T01:16:02.350Z,0.00
2017-10-19T01:17:02.322Z,0.00
2017-10-19T01:18:02.428Z,0.00
2017-10-19T01:19:02.382Z,0.00
2017-10-19T01:20:02.444Z,0.00
2017-10-19T01:21:02.445Z,0.00
2017-10-19T01:22:02.444Z,0.00
2017-10-19T01:23:02.446Z,0.00
2017-10-19T01:24:02.393Z,0.00
2017-10-19T01:25:02.449Z,0.00
2017-10-19T01:26:02.378Z,0.00
2017-10-19T01:27:02.449Z,0.00
2017-10-19T01:28:02.417Z,0.00
2017-10-19T01:29:02.450Z,0.00
2017-10-19T01:30:02.382Z,0.00
2017-10-19T01:31:02.449Z,0.00
2017-10-19T01:32:02.388Z,0.00
2017-10-19T01:33:02.388Z,0.00
2017-10-19T01:34:02.456Z,0.00
2017-10-19T01:35:02.414Z,0.00
2017-10-19T01:36:02.456Z,0.00
2017-10-19T01:37:02.410Z,0.00
2017-10-19T01:38:02.382Z,0.00
2017-10-19T01:39:02.340Z,0.00
2017-10-19T01:40:02.410Z,0.00
2017-10-19T01:41:02.448Z,0.00
2017-10-19T01:42:02.362Z,0.00
2017-10-19T01:43:02.358Z,0.00
2017-10-19T01:44:02.321Z,0.00
2017-10-19T01:45:02.450Z,0.00
2017-10-19T01:46:02.385Z,0.00
2017-10-19T01:47:02.391Z,0.00
2017-10-19T01:48:02.561Z,0.00
2017-10-19T01:49:02.411Z,0.00
2017-10-19T01:50:02.360Z,0.00
2017-10-19T01:51:02.468Z,0.00
2017-10-19T01:52:02.397Z,0.00
2017-10-19T01:53:02.462Z,0.00
2017-10-19T01:54:02.399Z,0.00
2017-10-19T01:55:02.466Z,0.00
2017-10-19T01:56:02.401Z,0.00
2017-10-19T01:57:02.468Z,0.00
2017-10-19T01:58:02.399Z,0.00
2017-10-19T01:59:02.467Z,0.00
2017-10-19T02:00:02.398Z,0.00
2017-10-19T02:01:02.471Z,0.00
2017-10-19T02:02:02.473Z,0.00
2017-10-19T02:03:02.404Z,0.00
2017-10-19T02:04:02.479Z,0.00
2017-10-19T02:05:02.473Z,0.00
2017-10-19T02:06:02.407Z,0.00
2017-10-19T02:07:02.412Z,0.00
2017-10-19T02:08:02.473Z,0.00
2017-10-19T02:09:02.469Z,0.00
2017-10-19T02:10:02.373Z,0.00
2017-10-19T02:11:02.465Z,0.00
2017-10-19T02:12:02.406Z,0.00
2017-10-19T02:13:02.355Z,0.00
2017-10-19T02:14:02.378Z,0.00
2017-10-19T02:15:02.477Z,0.00
2017-10-19T02:16:02.446Z,0.00
2017-10-19T02:17:02.424Z,0.00
2017-10-19T02:18:02.412Z,0.00
2017-10-19T02:19:02.451Z,0.00
2017-10-19T02:20:02.426Z,0.00
2017-10-19T02:21:02.377Z,0.00
2017-10-19T02:22:02.449Z,0.00
2017-10-19T02:23:02.475Z,0.00
2017-10-19T02:24:02.434Z,0.00
2017-10-19T02:25:02.481Z,0.00
2017-10-19T02:26:02.430Z,0.00
2017-10-19T02:27:02.477Z,0.00
2017-10-19T02:28:02.473Z,0.00
2017-10-19T02:29:02.434Z,0.00
2017-10-19T02:30:02.485Z,0.00
2017-10-19T02:31:02.418Z,0.00
2017-10-19T02:32:02.487Z,0.00
2017-10-19T02:33:02.429Z,0.00
2017-10-19T02:34:02.493Z,0.00
2017-10-19T02:35:02.422Z,0.00
2017-10-19T02:36:02.489Z,0.00
2017-10-19T02:37:02.428Z,0.00
2017-10-19T02:38:02.490Z,0.00
2017-10-19T02:39:02.501Z,0.00
2017-10-19T02:40:02.491Z,0.00
2017-10-19T02:41:02.422Z,0.00
2017-10-19T02:42:02.521Z,0.00
2017-10-19T02:43:02.436Z,0.00
2017-10-19T02:44:02.497Z,0.00
2017-10-19T02:45:02.496Z,0.00
2017-10-19T02:46:02.498Z,0.00
2017-10-19T02:47:02.453Z,0.00
2017-10-19T02:48:02.428Z,0.00
2017-10-19T02:49:02.380Z,0.00
2017-10-19T02:50:02.465Z,0.00
2017-10-19T02:51:02.432Z,0.00
2017-10-19T02:52:02.432Z,0.00
2017-10-19T02:53:02.400Z,0.00
2017-10-19T02:54:02.404Z,0.00
2017-10-19T02:55:02.471Z,0.00
2017-10-19T02:56:02.501Z,0.00
2017-10-19T02:57:02.500Z,0.00
2017-10-19T02:58:02.487Z,0.00
2017-10-19T02:59:02.409Z,0.00
2017-10-19T03:00:02.437Z,0.00
2017-10-19T03:01:02.496Z,0.00
2017-10-19T03:02:02.417Z,0.00
2017-10-19T03:03:02.414Z,0.00
2017-10-19T03:04:02.482Z,0.00
2017-10-19T03:05:02.410Z,0.00
2017-10-19T03:06:02.442Z,0.00
2017-10-19T03:07:02.418Z,0.00
2017-10-19T03:08:02.376Z,0.00
2017-10-19T03:09:02.379Z,0.00
2017-10-19T03:10:02.471Z,0.00
2017-10-19T03:11:02.490Z,0.00
2017-10-19T03:12:02.383Z,0.00
2017-10-19T03:13:02.498Z,0.00
2017-10-19T03:14:02.494Z,0.00
2017-10-19T03:15:02.465Z,0.00
2017-10-19T03:16:02.453Z,0.00
2017-10-19T03:17:02.473Z,0.00
2017-10-19T03:18:02.385Z,0.00
2017-10-19T03:19:02.515Z,0.00
2017-10-19T03:20:02.445Z,0.00
2017-10-19T03:21:02.452Z,0.00
2017-10-19T03:22:02.517Z,0.00
2017-10-19T03:23:02.452Z,0.00
2017-10-19T03:24:02.448Z,0.00
2017-10-19T03:25:02.521Z,0.00
2017-10-19T03:26:02.452Z,0.00
2017-10-19T03:27:02.523Z,0.00
2017-10-19T03:28:02.452Z,0.00
2017-10-19T03:29:02.401Z,0.00
2017-10-19T03:30:02.423Z,0.00
2017-10-19T03:31:02.493Z,0.00
2017-10-19T03:32:02.427Z,0.00
2017-10-19T03:33:02.427Z,0.00
2017-10-19T03:34:02.457Z,0.00
2017-10-19T03:35:02.495Z,0.00
2017-10-19T03:36:02.515Z,0.00
2017-10-19T03:37:02.432Z,0.00
2017-10-19T03:38:02.456Z,0.00
2017-10-19T03:39:02.512Z,0.00
2017-10-19T03:40:02.471Z,0.00
2017-10-19T03:41:02.475Z,0.00
2017-10-19T03:42:02.454Z,0.00
2017-10-19T03:43:02.421Z,0.00
2017-10-19T03:44:02.426Z,0.00
2017-10-19T03:45:02.464Z,0.00
2017-10-19T03:46:02.459Z,0.00
2017-10-19T03:47:02.563Z,0.00
2017-10-19T03:48:02.388Z,0.00
2017-10-19T03:49:02.463Z,0.00
2017-10-19T03:50:02.536Z,0.00
2017-10-19T03:51:02.466Z,0.00
2017-10-19T03:52:02.535Z,0.00
2017-10-19T03:53:02.495Z,0.00
2017-10-19T03:54:02.473Z,0.00
2017-10-19T03:55:02.536Z,0.00
2017-10-19T03:56:02.563Z,0.00
2017-10-19T03:57:02.542Z,0.00
2017-10-19T03:58:02.474Z,0.00
2017-10-19T03:59:02.404Z,0.00
2017-10-19T04:00:02.470Z,0.00
2017-10-19T04:01:02.406Z,0.00
2017-10-19T04:02:02.444Z,0.00
2017-10-19T04:03:02.528Z,0.00
2017-10-19T04:04:02.534Z,0.00
2017-10-19T04:05:02.407Z,0.00
2017-10-19T04:06:02.528Z,0.00
2017-10-19T04:07:02.454Z,0.00
2017-10-19T04:08:02.530Z,0.00
2017-10-19T04:09:02.450Z,0.00
2017-10-19T04:10:02.488Z,0.00
2017-10-19T04:11:02.504Z,0.00
2017-10-19T04:12:02.395Z,0.00
2017-10-19T04:13:02.456Z,0.00
2017-10-19T04:14:02.492Z,0.00
2017-10-19T04:15:02.443Z,0.00
2017-10-19T04:16:02.446Z,0.00
2017-10-19T04:17:02.480Z,0.00
2017-10-19T04:18:02.406Z,0.00
2017-10-19T04:19:02.501Z,0.00
2017-10-19T04:20:02.539Z,0.00
2017-10-19T04:21:02.418Z,0.00
2017-10-19T04:22:02.463Z,0.00
2017-10-19T04:23:02.545Z,0.00
2017-10-19T04:24:02.544Z,0.00
2017-10-19T04:25:02.485Z,0.00
2017-10-19T04:26:02.490Z,0.00
2017-10-19T04:27:02.467Z,0.00
2017-10-19T04:28:02.554Z,0.00
2017-10-19T04:29:02.551Z,0.00
2017-10-19T04:30:02.560Z,0.00
2017-10-19T04:31:02.486Z,0.00
2017-10-19T04:32:02.509Z,0.00
2017-10-19T04:33:02.552Z,0.00
2017-10-19T04:34:02.552Z,0.00
2017-10-19T04:35:02.554Z,0.00
2017-10-19T04:36:02.495Z,0.00
2017-10-19T04:37:02.486Z,0.00
2017-10-19T04:38:02.549Z,0.00
2017-10-19T04:39:02.565Z,0.00
2017-10-19T04:40:02.558Z,0.00
2017-10-19T04:41:02.565Z,0.00
2017-10-19T04:42:02.498Z,0.00
2017-10-19T04:43:02.497Z,0.00
2017-10-19T04:44:02.574Z,0.00
2017-10-19T04:45:02.571Z,0.00
2017-10-19T04:46:02.503Z,0.00
2017-10-19T04:47:02.568Z,0.00
2017-10-19T04:48:02.506Z,0.00
2017-10-19T04:49:02.473Z,0.00
2017-10-19T04:50:02.537Z,0.00
2017-10-19T04:51:02.520Z,0.00
2017-10-19T04:52:02.566Z,0.00
2017-10-19T04:53:02.510Z,0.00
2017-10-19T04:54:02.438Z,0.00
2017-10-19T04:55:02.478Z,0.00
2017-10-19T04:56:02.436Z,0.00
2017-10-19T04:57:02.481Z,0.00
2017-10-19T04:58:02.478Z,0.00
2017-10-19T04:59:02.468Z,0.00
2017-10-19T05:00:02.462Z,0.00
2017-10-19T05:01:02.447Z,0.00
2017-10-19T05:02:02.442Z,0.00
2017-10-19T05:03:02.442Z,0.00
2017-10-19T05:04:02.468Z,0.00
2017-10-19T05:05:02.451Z,0.00
2017-10-19T05:06:02.537Z,0.00
2017-10-19T05:07:02.474Z,0.00
2017-10-19T05:08:02.472Z,0.00
2017-10-19T05:09:02.583Z,0.00
2017-10-19T05:10:02.516Z,0.00
2017-10-19T05:11:02.516Z,0.00
2017-10-19T05:12:02.468Z,0.00
2017-10-19T05:13:02.512Z,0.00
2017-10-19T05:14:02.472Z,0.00
2017-10-19T05:15:02.516Z,0.00
2017-10-19T05:16:02.585Z,0.00
2017-10-19T05:17:02.520Z,0.00
2017-10-19T05:18:02.622Z,0.00
2017-10-19T05:19:02.557Z,0.00
2017-10-19T05:20:02.603Z,0.00
2017-10-19T05:21:02.574Z,0.00
2017-10-19T05:22:02.491Z,0.00
2017-10-19T05:23:02.455Z,0.00
2017-10-19T05:24:02.560Z,0.00
2017-10-19T05:25:02.489Z,0.00
2017-10-19T05:26:02.494Z,0.00
2017-10-19T05:27:02.578Z,0.00
2017-10-19T05:28:02.561Z,0.00
2017-10-19T05:29:02.522Z,0.00
2017-10-19T05:30:02.594Z,0.00
2017-10-19T05:31:02.527Z,0.00
2017-10-19T05:32:02.529Z,0.00
2017-10-19T05:33:02.567Z,0.00
2017-10-19T05:34:02.530Z,0.00
2017-10-19T05:35:02.600Z,0.00
2017-10-19T05:36:02.532Z,0.00
2017-10-19T05:37:02.600Z,0.00
2017-10-19T05:38:02.600Z,0.00
2017-10-19T05:39:02.548Z,0.00
2017-10-19T05:40:02.503Z,0.00
2017-10-19T05:41:02.582Z,0.00
2017-10-19T05:42:02.591Z,0.00
2017-10-19T05:43:02.509Z,0.00
2017-10-19T05:44:02.602Z,0.00
2017-10-19T05:45:02.484Z,0.00
2017-10-19T05:46:02.465Z,0.00
2017-10-19T05:47:02.559Z,0.00
2017-10-19T05:48:02.507Z,0.00
2017-10-19T05:49:02.557Z,0.00
2017-10-19T05:50:02.540Z,0.00
2017-10-19T05:51:02.514Z,0.00
2017-10-19T05:52:02.586Z,0.00
2017-10-19T05:53:02.541Z,0.00
2017-10-19T05:54:02.563Z,0.00
2017-10-19T05:55:02.541Z,0.00
2017-10-19T05:56:02.609Z,0.00
2017-10-19T05:57:02.611Z,0.00
2017-10-19T05:58:02.610Z,0.00
2017-10-19T06:00:02.518Z,0.00
2017-10-19T06:01:02.606Z,0.00
2017-10-19T06:02:02.581Z,0.00
2017-10-19T06:03:02.546Z,0.00
2017-10-19T06:04:02.482Z,0.00
2017-10-19T06:05:02.603Z,0.00
2017-10-19T06:06:02.551Z,0.00
2017-10-19T06:07:02.564Z,0.00
2017-10-19T06:08:02.586Z,0.00
2017-10-19T06:09:02.485Z,0.00
2017-10-19T06:10:02.563Z,0.00
2017-10-19T06:11:02.569Z,0.00
2017-10-19T06:12:02.518Z,0.00
2017-10-19T06:13:02.475Z,0.00
2017-10-19T06:14:02.514Z,0.00
2017-10-19T06:15:02.470Z,1.00
2017-10-19T06:16:02.563Z,1.00
2017-10-19T06:17:02.474Z,1.00
2017-10-19T06:18:02.571Z,1.00
2017-10-19T06:19:02.518Z,1.00
2017-10-19T06:20:02.624Z,1.00
2017-10-19T06:21:02.565Z,1.00
2017-10-19T06:22:02.627Z,1.00
2017-10-19T06:23:02.552Z,2.00
2017-10-19T06:24:02.627Z,2.00
2017-10-19T06:25:02.628Z,1.00
2017-10-19T06:26:02.580Z,1.00
2017-10-19T06:27:02.632Z,1.00
2017-10-19T06:28:02.591Z,1.00
2017-10-19T06:29:02.629Z,1.00
2017-10-19T06:30:02.528Z,1.00
2017-10-19T06:31:02.631Z,1.00
2017-10-19T06:32:02.555Z,1.00
2017-10-19T06:33:02.558Z,1.00
2017-10-19T06:34:02.511Z,1.00
2017-10-19T06:35:02.585Z,1.00
2017-10-19T06:36:02.602Z,2.00
2017-10-19T06:37:02.580Z,2.00
2017-10-19T06:38:02.578Z,2.00
2017-10-19T06:39:02.564Z,2.00
2017-10-19T06:40:02.566Z,2.00
2017-10-19T06:41:02.543Z,2.00
2017-10-19T06:42:02.564Z,2.00
2017-10-19T06:43:02.541Z,2.00
2017-10-19T06:44:02.637Z,2.00
2017-10-19T06:45:02.605Z,2.00
2017-10-19T06:46:02.540Z,2.00
2017-10-19T06:47:02.609Z,2.00
2017-10-19T06:48:02.541Z,3.00
2017-10-19T06:49:02.543Z,3.00
2017-10-19T06:50:02.566Z,3.00
2017-10-19T06:51:02.591Z,3.00
2017-10-19T06:52:02.643Z,4.00
2017-10-19T06:53:02.571Z,4.00
2017-10-19T06:54:02.649Z,4.00
2017-10-19T06:55:02.588Z,4.00
2017-10-19T06:56:02.572Z,4.00
2017-10-19T06:57:02.647Z,4.00
2017-10-19T06:58:02.573Z,4.00
2017-10-19T06:59:02.646Z,5.00
2017-10-19T07:00:02.543Z,6.00
2017-10-19T07:01:02.544Z,6.00
2017-10-19T07:02:02.503Z,6.00
2017-10-19T07:03:02.659Z,6.00
2017-10-19T07:04:02.593Z,6.00
2017-10-19T07:05:02.596Z,7.00
2017-10-19T07:06:02.548Z,7.00
2017-10-19T07:07:02.593Z,7.00
2017-10-19T07:08:02.503Z,8.00
2017-10-19T07:09:02.587Z,8.00
2017-10-19T07:10:02.537Z,9.00
2017-10-19T07:11:02.609Z,10.00
2017-10-19T07:12:02.594Z,10.00
2017-10-19T07:13:02.547Z,9.00
2017-10-19T07:14:02.550Z,9.00
2017-10-19T07:15:02.553Z,9.00
2017-10-19T07:16:02.553Z,9.00
2017-10-19T07:17:02.560Z,9.00
2017-10-19T07:18:02.511Z,9.00
2017-10-19T07:19:02.544Z,9.00
2017-10-19T07:20:02.658Z,9.00
2017-10-19T07:21:02.609Z,10.00
2017-10-19T07:22:02.606Z,10.00
2017-10-19T07:23:02.614Z,10.00
2017-10-19T07:24:02.616Z,9.00
2017-10-19T07:25:02.664Z,10.00
2017-10-19T07:26:02.652Z,11.00
2017-10-19T07:27:02.562Z,11.00
2017-10-19T07:28:02.657Z,11.00
2017-10-19T07:29:02.651Z,11.00
2017-10-19T07:30:02.570Z,11.00
2017-10-19T07:31:02.564Z,10.00
2017-10-19T07:32:02.516Z,10.00
2017-10-19T07:33:02.523Z,12.00
2017-10-19T07:34:02.520Z,12.00
2017-10-19T07:35:02.570Z,12.00
2017-10-19T07:36:02.518Z,12.00
2017-10-19T07:37:02.568Z,13.00
2017-10-19T07:38:02.522Z,12.00
2017-10-19T07:39:02.525Z,12.00
2017-10-19T07:41:02.579Z,14.00
2017-10-19T07:42:02.619Z,14.00
2017-10-19T07:43:02.615Z,14.00
2017-10-19T07:44:02.528Z,15.00
2017-10-19T07:45:02.617Z,14.00
2017-10-19T07:46:02.572Z,15.00
2017-10-19T07:47:02.525Z,15.00
2017-10-19T07:48:02.616Z,17.00
2017-10-19T07:49:02.571Z,17.00
2017-10-19T07:50:02.679Z,18.00
2017-10-19T07:51:02.612Z,17.00
2017-10-19T07:52:02.609Z,15.00
2017-10-19T07:53:02.681Z,15.00
2017-10-19T07:54:02.609Z,15.00
2017-10-19T07:55:02.681Z,15.00
2017-10-19T07:56:02.609Z,16.00
2017-10-19T07:57:02.686Z,17.00
2017-10-19T07:58:02.610Z,17.00
2017-10-19T07:59:02.689Z,18.00
2017-10-19T08:00:02.617Z,18.00
2017-10-19T08:01:02.611Z,16.00
2017-10-19T08:02:02.687Z,17.00
2017-10-19T08:03:02.615Z,18.00
2017-10-19T08:04:02.685Z,20.00
2017-10-19T08:05:02.620Z,19.00
2017-10-19T08:06:02.687Z,19.00
2017-10-19T08:07:02.616Z,19.00
2017-10-19T08:08:02.687Z,19.00
2017-10-19T08:09:02.615Z,19.00
2017-10-19T08:10:02.572Z,19.00
2017-10-19T08:11:02.637Z,19.00
2017-10-19T08:12:02.591Z,20.00
2017-10-19T08:13:02.691Z,19.00
2017-10-19T08:14:02.573Z,22.00
2017-10-19T08:15:02.576Z,23.00
2017-10-19T08:16:02.704Z,19.00
2017-10-19T08:17:02.579Z,19.00
2017-10-19T08:18:02.624Z,22.00
2017-10-19T08:19:02.667Z,22.00
2017-10-19T08:20:02.646Z,23.00
2017-10-19T08:21:02.587Z,24.00
2017-10-19T08:22:02.570Z,24.00
2017-10-19T08:23:02.642Z,24.00
2017-10-19T08:24:02.624Z,23.00
2017-10-19T08:25:02.588Z,25.00
2017-10-19T08:26:02.561Z,26.00
2017-10-19T08:27:02.551Z,25.00
2017-10-19T08:28:02.631Z,25.00
2017-10-19T08:29:02.572Z,25.00
2017-10-19T08:30:02.639Z,26.00
2017-10-19T08:31:02.604Z,28.00
2017-10-19T08:32:02.672Z,25.00
2017-10-19T08:33:02.702Z,27.00
2017-10-19T08:34:02.761Z,26.00
2017-10-19T08:35:02.630Z,26.00
2017-10-19T08:36:02.676Z,28.00
2017-10-19T08:37:02.650Z,31.00
2017-10-19T08:38:02.633Z,32.00
2017-10-19T08:39:02.617Z,31.00
2017-10-19T08:40:02.700Z,38.00
2017-10-19T08:41:02.573Z,37.00
2017-10-19T08:42:02.698Z,32.00
2017-10-19T08:43:02.698Z,34.00
2017-10-19T08:44:02.681Z,35.00
2017-10-19T08:45:02.701Z,35.00
2017-10-19T08:46:02.719Z,46.00
2017-10-19T08:47:02.710Z,48.00
2017-10-19T08:48:02.698Z,54.00
2017-10-19T08:49:02.712Z,68.00
2017-10-19T08:50:02.664Z,61.00
2017-10-19T08:51:02.696Z,73.00
2017-10-19T08:52:02.660Z,79.00
2017-10-19T08:53:02.640Z,73.00
2017-10-19T08:54:02.575Z,39.00
2017-10-19T08:55:02.645Z,72.00
2017-10-19T08:56:02.675Z,52.00
2017-10-19T08:57:02.606Z,73.00
2017-10-19T08:58:02.626Z,56.00
2017-10-19T08:59:02.673Z,77.00
2017-10-19T09:00:02.652Z,79.00
2017-10-19T09:01:02.577Z,80.00
2017-10-19T09:02:02.576Z,61.00
2017-10-19T09:03:02.650Z,79.00
2017-10-19T09:04:02.578Z,48.00
2017-10-19T09:05:02.679Z,60.00
2017-10-19T09:06:02.583Z,64.00
2017-10-19T09:07:02.624Z,58.00
2017-10-19T09:08:02.612Z,66.00
2017-10-19T09:09:02.597Z,57.00
2017-10-19T09:10:02.730Z,71.00
2017-10-19T09:11:02.665Z,75.00
2017-10-19T09:12:02.732Z,65.00
2017-10-19T09:13:02.660Z,78.00
2017-10-19T09:14:02.653Z,74.00
2017-10-19T09:15:02.731Z,75.00
2017-10-19T09:16:02.731Z,72.00
2017-10-19T09:17:02.653Z,86.00
2017-10-19T09:18:02.734Z,75.00
2017-10-19T09:19:02.732Z,85.00
2017-10-19T09:20:02.561Z,85.00
2017-10-19T09:21:02.560Z,85.00
2017-10-19T09:22:02.637Z,85.00
2017-10-19T09:23:02.553Z,85.00
2017-10-19T09:24:02.566Z,86.00
2017-10-19T09:25:02.601Z,87.00
2017-10-19T09:26:02.669Z,87.00
2017-10-19T09:27:02.661Z,86.00
2017-10-19T09:28:02.644Z,87.00
2017-10-19T09:29:02.557Z,86.00
2017-10-19T09:30:02.667Z,87.00
2017-10-19T09:31:02.748Z,87.00
2017-10-19T09:32:02.746Z,88.00
2017-10-19T09:33:02.667Z,87.00
2017-10-19T09:34:02.743Z,87.00
2017-10-19T09:35:02.688Z,86.00
2017-10-19T09:36:02.742Z,86.00
2017-10-19T09:37:02.742Z,87.00
2017-10-19T09:38:02.699Z,87.00
2017-10-19T09:39:02.672Z,87.00
2017-10-19T09:40:02.707Z,88.00
2017-10-19T09:41:02.747Z,86.00
2017-10-19T09:42:02.745Z,86.00
2017-10-19T09:43:02.750Z,86.00
2017-10-19T09:44:02.681Z,86.00
2017-10-19T09:45:02.748Z,86.00
2017-10-19T09:46:02.681Z,87.00
2017-10-19T09:47:02.749Z,87.00
2017-10-19T09:48:02.679Z,86.00
2017-10-19T09:49:02.750Z,84.00
2017-10-19T09:50:02.659Z,85.00
2017-10-19T09:51:02.636Z,85.00
2017-10-19T09:52:02.686Z,89.00
2017-10-19T09:53:02.679Z,88.00
2017-10-19T09:54:02.732Z,87.00
2017-10-19T09:55:02.661Z,88.00
2017-10-19T09:56:02.665Z,87.00
2017-10-19T09:57:02.672Z,87.00
2017-10-19T09:58:02.683Z,88.00
2017-10-19T09:59:02.666Z,87.00
2017-10-19T10:00:02.760Z,86.00
2017-10-19T10:01:02.691Z,85.00
2017-10-19T10:02:02.761Z,84.00
2017-10-19T10:03:02.687Z,84.00
2017-10-19T10:04:02.761Z,89.00
2017-10-19T10:05:02.757Z,89.00
2017-10-19T10:06:02.685Z,90.00
2017-10-19T10:07:02.766Z,90.00
2017-10-19T10:08:02.690Z,91.00
2017-10-19T10:09:02.764Z,91.00
2017-10-19T10:10:02.698Z,90.00
2017-10-19T10:11:02.762Z,88.00
2017-10-19T10:12:02.692Z,89.00
2017-10-19T10:13:02.767Z,89.00
2017-10-19T10:14:02.765Z,91.00
2017-10-19T10:15:02.690Z,90.00
2017-10-19T10:16:02.793Z,92.00
2017-10-19T10:17:02.769Z,92.00
2017-10-19T10:18:02.695Z,91.00
2017-10-19T10:19:02.769Z,92.00
2017-10-19T10:20:02.616Z,94.00
2017-10-19T10:21:02.667Z,95.00
2017-10-19T10:22:02.699Z,95.00
2017-10-19T10:23:02.714Z,97.00
2017-10-19T10:24:02.671Z,97.00
2017-10-19T10:25:02.621Z,96.00
2017-10-19T10:26:02.668Z,99.00
2017-10-19T10:27:02.715Z,89.00
2017-10-19T10:28:02.625Z,97.00
2017-10-19T10:29:02.672Z,71.00
2017-10-19T10:30:02.776Z,71.00
2017-10-19T10:31:02.701Z,91.00
2017-10-19T10:32:02.776Z,37.00
2017-10-19T10:33:02.703Z,45.00
2017-10-19T10:34:02.700Z,85.00
2017-10-19T10:35:02.777Z,99.00
2017-10-19T10:36:02.711Z,98.00
2017-10-19T10:37:02.778Z,99.00
2017-10-19T10:38:02.709Z,99.00
2017-10-19T10:39:02.783Z,70.00
2017-10-19T10:40:02.782Z,80.00
2017-10-19T10:41:02.723Z,98.00
2017-10-19T10:42:02.783Z,96.00
2017-10-19T10:43:02.715Z,94.00
2017-10-19T10:44:02.785Z,92.00
2017-10-19T10:45:02.714Z,96.00
2017-10-19T10:46:02.783Z,96.00
2017-10-19T10:47:02.713Z,96.00
2017-10-19T10:48:02.789Z,95.00
2017-10-19T10:49:02.800Z,96.00
2017-10-19T10:50:02.786Z,97.00
2017-10-19T10:51:02.714Z,97.00
2017-10-19T10:52:02.802Z,97.00
2017-10-19T10:53:02.713Z,97.00
2017-10-19T10:54:02.790Z,97.00
2017-10-19T10:55:02.725Z,97.00
2017-10-19T10:56:02.795Z,96.00
2017-10-19T10:57:02.721Z,97.00
2017-10-19T10:58:02.678Z,93.00
2017-10-19T10:59:02.723Z,99.00
2017-10-19T11:00:02.792Z,99.00
2017-10-19T11:01:02.718Z,99.00
2017-10-19T11:02:02.795Z,99.00
2017-10-19T11:03:02.840Z,99.00
2017-10-19T11:04:02.797Z,99.00
2017-10-19T11:05:02.759Z,99.00
2017-10-19T11:06:02.725Z,99.00
2017-10-19T11:07:02.799Z,95.00
2017-10-19T11:08:02.729Z,93.00
2017-10-19T11:09:02.798Z,96.00
2017-10-19T11:10:02.680Z,99.00
2017-10-19T11:11:02.765Z,99.00
2017-10-19T11:12:02.782Z,99.00
2017-10-19T11:13:02.728Z,62.00
2017-10-19T11:14:02.728Z,99.00
2017-10-19T11:15:02.727Z,96.00
2017-10-19T11:16:02.768Z,93.00
2017-10-19T11:17:02.724Z,72.00
2017-10-19T11:18:02.803Z,99.00
2017-10-19T11:19:02.704Z,99.00
2017-10-19T11:20:02.694Z,90.00
2017-10-19T11:21:02.734Z,68.00
2017-10-19T11:22:02.809Z,52.00
2017-10-19T11:23:02.823Z,96.00
2017-10-19T11:24:02.733Z,99.00
2017-10-19T11:25:02.811Z,97.00
2017-10-19T11:26:02.737Z,95.00
2017-10-19T11:27:02.735Z,96.00
2017-10-19T11:28:02.811Z,96.00
2017-10-19T11:29:02.734Z,95.00
2017-10-19T11:30:02.812Z,96.00
2017-10-19T11:31:02.742Z,96.00
2017-10-19T11:32:02.811Z,95.00
2017-10-19T11:33:02.748Z,95.00
2017-10-19T11:34:02.814Z,94.00
2017-10-19T11:35:02.745Z,95.00
2017-10-19T11:36:02.745Z,95.00
2017-10-19T11:37:02.741Z,95.00
2017-10-19T11:38:02.818Z,95.00
2017-10-19T11:39:02.817Z,96.00
2017-10-19T11:40:02.748Z,96.00
2017-10-19T11:41:02.818Z,96.00
2017-10-19T11:42:02.752Z,96.00
2017-10-19T11:43:02.820Z,95.00
2017-10-19T11:44:02.772Z,95.00
2017-10-19T11:45:02.822Z,95.00
2017-10-19T11:46:02.758Z,95.00
2017-10-19T11:47:02.822Z,95.00
2017-10-19T11:48:02.749Z,95.00
2017-10-19T11:49:02.780Z,95.00
2017-10-19T11:50:02.822Z,95.00
2017-10-19T11:51:02.825Z,95.00
2017-10-19T11:52:02.751Z,95.00
2017-10-19T11:53:02.825Z,96.00
2017-10-19T11:54:02.752Z,96.00
2017-10-19T11:55:02.840Z,95.00
2017-10-19T11:56:02.754Z,95.00
2017-10-19T11:57:02.828Z,95.00
2017-10-19T11:58:02.757Z,95.00
2017-10-19T11:59:02.830Z,95.00
2017-10-19T12:00:02.758Z,95.00
2017-10-19T12:01:02.830Z,94.00
2017-10-19T12:02:02.764Z,94.00
2017-10-19T12:03:02.850Z,94.00
2017-10-19T12:04:02.762Z,94.00
2017-10-19T12:05:02.764Z,94.00
2017-10-19T12:06:02.841Z,94.00
2017-10-19T12:07:02.834Z,95.00
2017-10-19T12:08:02.760Z,94.00
2017-10-19T12:09:02.841Z,94.00
2017-10-19T12:10:02.762Z,94.00
2017-10-19T12:11:02.836Z,94.00
2017-10-19T12:12:02.841Z,94.00
2017-10-19T12:13:02.843Z,93.00
2017-10-19T12:14:02.765Z,93.00
2017-10-19T12:15:02.843Z,93.00
2017-10-19T12:16:02.839Z,92.00
2017-10-19T12:17:02.844Z,92.00
2017-10-19T12:18:02.843Z,93.00
2017-10-19T12:19:02.777Z,92.00
2017-10-19T12:20:02.802Z,92.00
2017-10-19T12:21:02.771Z,92.00
2017-10-19T12:22:02.848Z,92.00
2017-10-19T12:23:02.771Z,92.00
2017-10-19T12:24:02.769Z,92.00
2017-10-19T12:25:02.855Z,91.00
2017-10-19T12:26:02.779Z,91.00
2017-10-19T12:27:02.855Z,91.00
2017-10-19T12:28:02.771Z,90.00
2017-10-19T12:29:02.805Z,90.00
2017-10-19T12:30:02.851Z,90.00
2017-10-19T12:31:02.851Z,89.00
2017-10-19T12:32:02.779Z,90.00
2017-10-19T12:33:02.849Z,90.00
2017-10-19T12:34:02.742Z,90.00
2017-10-19T12:35:02.778Z,90.00
2017-10-19T12:36:02.736Z,90.00
2017-10-19T12:37:02.776Z,90.00
2017-10-19T12:38:02.857Z,90.00
2017-10-19T12:39:02.776Z,89.00
2017-10-19T12:40:02.861Z,89.00
2017-10-19T12:41:02.787Z,88.00
2017-10-19T12:42:02.855Z,88.00
2017-10-19T12:43:02.785Z,87.00
2017-10-19T12:44:02.857Z,85.00
2017-10-19T12:45:02.783Z,86.00
2017-10-19T12:46:02.858Z,84.00
2017-10-19T12:47:02.782Z,86.00
2017-10-19T12:48:02.859Z,87.00
2017-10-19T12:49:02.788Z,86.00
2017-10-19T12:50:02.854Z,85.00
2017-10-19T12:51:02.858Z,83.00
2017-10-19T12:52:02.856Z,82.00
2017-10-19T12:53:02.846Z,80.00
2017-10-19T12:54:02.859Z,82.00
2017-10-19T12:55:02.742Z,86.00
2017-10-19T12:56:02.805Z,87.00
2017-10-19T12:57:02.788Z,87.00
2017-10-19T12:58:02.852Z,86.00
2017-10-19T12:59:02.746Z,86.00
2017-10-19T13:00:02.814Z,82.00
2017-10-19T13:01:02.797Z,82.00
2017-10-19T13:02:02.817Z,79.00
2017-10-19T13:03:02.831Z,76.00
2017-10-19T13:04:02.750Z,72.00
2017-10-19T13:05:02.840Z,67.00
2017-10-19T13:06:02.797Z,73.00
2017-10-19T13:07:02.868Z,70.00
2017-10-19T13:08:02.862Z,70.00